Terminal Aerodrome Forecast
Issued by NWS Lake Charles, LA

Home | Current Version | Previous Version | Text Only | Print | Product List | Glossary On
Versions: 1 2 3 4 5 6 7 8 9 10 11 12 13 14 15 16 17
000
FTUS44 KLCH 231720
TAFLCH
TAF
KLCH 231720Z 2318/2418 23009KT P6SM VCTS SCT035CB BKN100
      TEMPO 2318/2322 VRB15G25KT 2SM TSRA BKN025CB
     FM240200 22004KT P6SM VCTS SCT035CB BKN250
     FM241400 24009KT P6SM VCTS SCT035CB BKN100=

USA.gov is the U.S. government's official web portal to all federal, state and local government web resources and services.